Time;durP1;ratioP1;P1;durP2;ratioP2;P2;SDS_P1;SDS_P2;PMS_P1;PMS_P2;Temp;Humidity;BMP_temperature;BMP_pressure;BME280_temperature;BME280_humidity;BME280_pressure;Samples;Min_cycle;Max_cycle;Signal;HPM_P1;HPM_P2
2023/09/16 05:05:18;;;;;;;;;10.33;8.33;;;;;;;;6227910;22;46483;-71
2023/09/16 05:07:44;;;;;;;;;11.00;11.00;;;;;;;;6305273;22;45571;-72
2023/09/16 05:10:09;;;;;;;;;10.00;9.00;;;;;;;;6304356;22;45523;-73
2023/09/16 05:12:35;;;;;;;;;11.67;10.00;;;;;;;;6305921;22;45299;-72
2023/09/16 05:15:00;;;;;;;;;10.00;10.00;;;;;;;;6306030;22;45311;-72
2023/09/16 05:17:25;;;;;;;;;11.67;7.67;;;;;;;;6276445;22;46423;-72
2023/09/16 05:19:50;;;;;;;;;9.00;9.00;;;;;;;;6305224;22;45373;-72
2023/09/16 05:22:16;;;;;;;;;10.67;9.00;;;;;;;;6305365;22;45354;-72
2023/09/16 05:24:41;;;;;;;;;10.67;9.00;;;;;;;;6306436;22;45496;-72
2023/09/16 05:27:06;;;;;;;;;11.67;9.33;;;;;;;;6277396;22;45402;-72
2023/09/16 05:29:31;;;;;;;;;11.67;11.33;;;;;;;;6307103;22;46167;-71
2023/09/16 05:31:58;;;;;;;;;9.33;9.00;;;;;;;;6306812;22;45303;-71
2023/09/16 05:34:23;;;;;;;;;11.00;9.00;;;;;;;;6306144;22;45184;-71
2023/09/16 05:36:48;;;;;;;;;9.00;9.00;;;;;;;;6306573;22;45294;-71
2023/09/16 05:39:13;;;;;;;;;14.00;11.00;;;;;;;;6306353;22;46350;-71
2023/09/16 05:41:38;;;;;;;;;8.33;7.67;;;;;;;;6306488;22;45255;-71
2023/09/16 05:44:04;;;;;;;;;7.67;7.67;;;;;;;;6306781;22;45259;-71
2023/09/16 05:46:29;;;;;;;;;10.00;10.00;;;;;;;;6277113;22;46757;-71
2023/09/16 05:49:06;;;;;;;;;10.67;10.67;;;;;;;;6277321;22;46974;-71
2023/09/16 05:51:31;;;;;;;;;10.67;8.33;;;;;;;;6305217;22;45345;-71
2023/09/16 05:53:56;;;;;;;;;10.67;10.33;;;;;;;;6306530;22;45259;-71
2023/09/16 05:56:21;;;;;;;;;9.67;9.33;;;;;;;;6306678;22;45846;-73
2023/09/16 05:58:47;;;;;;;;;7.33;7.33;;;;;;;;6305984;22;45471;-71
2023/09/16 06:01:12;;;;;;;;;10.67;9.67;;;;;;;;6306173;22;45354;-70
2023/09/16 06:03:37;;;;;;;;;12.33;10.33;;;;;;;;6306522;22;45458;-70
2023/09/16 06:06:03;;;;;;;;;12.67;10.00;;;;;;;;6305335;22;45362;-71
2023/09/16 06:08:28;;;;;;;;;10.00;10.00;;;;;;;;6305607;22;45484;-70
2023/09/16 06:10:53;;;;;;;;;7.67;7.67;;;;;;;;6305707;22;45385;-71
2023/09/16 06:13:18;;;;;;;;;9.00;7.33;;;;;;;;6306014;22;45297;-71
2023/09/16 06:15:44;;;;;;;;;10.67;10.00;;;;;;;;6279128;22;45984;-70
2023/09/16 06:18:09;;;;;;;;;12.33;9.67;;;;;;;;6308943;22;45333;-70
2023/09/16 06:20:34;;;;;;;;;12.00;9.67;;;;;;;;6308108;22;45333;-72
2023/09/16 06:23:02;;;;;;;;;9.33;9.33;;;;;;;;6308249;22;45242;-70
2023/09/16 06:25:28;;;;;;;;;12.67;10.00;;;;;;;;6280449;22;45318;-70
2023/09/16 06:27:53;;;;;;;;;11.00;10.00;;;;;;;;6279840;22;45505;-71
2023/09/16 06:30:18;;;;;;;;;11.33;11.33;;;;;;;;6308779;22;45251;-71
2023/09/16 06:32:44;;;;;;;;;12.00;10.33;;;;;;;;6309379;22;45112;-70
2023/09/16 06:35:09;;;;;;;;;11.33;10.33;;;;;;;;6278390;22;45568;-71
2023/09/16 06:37:34;;;;;;;;;15.00;12.00;;;;;;;;6305885;22;45365;-73
2023/09/16 06:39:59;;;;;;;;;11.33;11.33;;;;;;;;6305280;22;45417;-71
2023/09/16 06:42:24;;;;;;;;;11.67;11.67;;;;;;;;6278638;22;45279;-71
2023/09/16 06:44:54;;;;;;;;;10.00;10.00;;;;;;;;6305732;22;45404;-71
2023/09/16 06:47:24;;;;;;;;;12.00;12.00;;;;;;;;6277521;22;48344;-73
2023/09/16 06:49:49;;;;;;;;;11.33;10.00;;;;;;;;6304639;22;45302;-71
2023/09/16 06:52:14;;;;;;;;;12.00;12.00;;;;;;;;6306454;22;45236;-70
2023/09/16 06:54:40;;;;;;;;;13.33;12.00;;;;;;;;6277442;22;45573;-71
2023/09/16 06:57:05;;;;;;;;;12.67;11.33;;;;;;;;6306560;22;45413;-71
2023/09/16 06:59:30;;;;;;;;;16.67;14.33;;;;;;;;6304984;22;45435;-71
2023/09/16 07:01:57;;;;;;;;;8.67;7.33;;;;;;;;6306014;22;45421;-70
2023/09/16 07:04:24;;;;;;;;;14.00;11.33;;;;;;;;6304871;22;45315;-70
2023/09/16 07:06:49;;;;;;;;;11.67;11.67;;;;;;;;6303837;22;45378;-71
2023/09/16 07:09:14;;;;;;;;;9.33;9.33;;;;;;;;6305132;22;45429;-70
2023/09/16 07:11:40;;;;;;;;;13.33;13.00;;;;;;;;6306345;22;45367;-70
2023/09/16 07:14:05;;;;;;;;;14.33;12.67;;;;;;;;6276862;22;45955;-71
2023/09/16 07:16:38;;;;;;;;;14.33;12.00;;;;;;;;6305864;22;45407;-71
2023/09/16 07:19:03;;;;;;;;;11.00;10.67;;;;;;;;6305351;22;45291;-70
2023/09/16 07:21:31;;;;;;;;;14.67;12.00;;;;;;;;6304874;22;45326;-70
2023/09/16 07:24:00;;;;;;;;;13.67;13.67;;;;;;;;6307030;22;45176;-70
2023/09/16 07:26:26;;;;;;;;;15.33;13.00;;;;;;;;6306182;22;46302;-71
2023/09/16 07:28:51;;;;;;;;;12.67;12.00;;;;;;;;6306848;22;45381;-70
2023/09/16 07:31:16;;;;;;;;;16.67;15.33;;;;;;;;6307040;22;45316;-70
2023/09/16 07:33:41;;;;;;;;;12.00;11.67;;;;;;;;6306885;22;45337;-70
2023/09/16 07:36:06;;;;;;;;;11.00;10.67;;;;;;;;6277552;22;45752;-70
2023/09/16 07:38:32;;;;;;;;;9.67;9.67;;;;;;;;6307294;22;45248;-70
2023/09/16 07:40:57;;;;;;;;;14.33;13.00;;;;;;;;6308364;22;45289;-70
2023/09/16 07:43:22;;;;;;;;;14.67;12.00;;;;;;;;6310001;22;45201;-71
2023/09/16 07:45:47;;;;;;;;;17.00;14.33;;;;;;;;6281371;22;47437;-70
2023/09/16 07:48:14;;;;;;;;;15.00;14.67;;;;;;;;6309916;22;45344;-70
2023/09/16 07:50:39;;;;;;;;;13.00;11.33;;;;;;;;6309158;22;45292;-70
2023/09/16 07:53:04;;;;;;;;;14.00;13.67;;;;;;;;6281554;22;46914;-70
2023/09/16 07:55:30;;;;;;;;;10.00;10.00;;;;;;;;6280906;22;46832;-72
2023/09/16 07:57:55;;;;;;;;;14.33;13.00;;;;;;;;6309996;22;45188;-72
2023/09/16 08:00:20;;;;;;;;;14.00;12.00;;;;;;;;6281164;22;45271;-72
2023/09/16 08:02:45;;;;;;;;;9.00;8.00;;;;;;;;6281701;22;45284;-72
2023/09/16 08:05:10;;;;;;;;;13.00;12.67;;;;;;;;6308602;22;45305;-72
2023/09/16 08:07:36;;;;;;;;;14.33;12.33;;;;;;;;6281656;22;45316;-71
2023/09/16 08:10:02;;;;;;;;;12.00;12.00;;;;;;;;6279624;22;45200;-72
2023/09/16 08:12:27;;;;;;;;;13.67;12.33;;;;;;;;6278178;22;45406;-72
2023/09/16 08:14:52;;;;;;;;;13.00;13.00;;;;;;;;6306396;22;45205;-72
2023/09/16 08:17:17;;;;;;;;;13.00;12.00;;;;;;;;6307151;22;45212;-72
2023/09/16 08:19:42;;;;;;;;;14.00;13.67;;;;;;;;6306651;22;45242;-72
2023/09/16 08:22:08;;;;;;;;;13.67;12.67;;;;;;;;6306519;22;45840;-72
2023/09/16 08:24:34;;;;;;;;;12.67;12.67;;;;;;;;6306758;22;46343;-72
2023/09/16 08:26:59;;;;;;;;;17.33;13.00;;;;;;;;6306769;22;45298;-72
2023/09/16 08:29:24;;;;;;;;;11.33;11.33;;;;;;;;6305679;22;45339;-71
2023/09/16 08:31:49;;;;;;;;;15.67;14.00;;;;;;;;6306864;22;45377;-71
2023/09/16 08:34:14;;;;;;;;;13.00;11.33;;;;;;;;6306041;22;45987;-72
2023/09/16 08:36:40;;;;;;;;;13.50;12.50;;;;;;;;6305942;22;45176;-72
2023/09/16 08:39:05;;;;;;;;;16.00;14.67;;;;;;;;6306742;22;45492;-72
2023/09/16 08:41:35;;;;;;;;;14.00;11.25;;;;;;;;6306429;22;45618;-70
2023/09/16 08:44:04;;;;;;;;;14.00;12.33;;;;;;;;6306158;22;45361;-70
2023/09/16 08:46:32;;;;;;;;;13.25;13.00;;;;;;;;6306654;22;45308;-72
2023/09/16 08:48:59;;;;;;;;;14.33;13.33;;;;;;;;6306915;22;45337;-72
2023/09/16 08:51:24;;;;;;;;;13.25;13.00;;;;;;;;6306503;22;45324;-72
2023/09/16 08:53:51;;;;;;;;;16.50;14.50;;;;;;;;6278092;22;46389;-71
2023/09/16 08:56:16;;;;;;;;;13.75;12.00;;;;;;;;6306424;22;45248;-71
2023/09/16 08:58:43;;;;;;;;;16.25;16.25;;;;;;;;6307235;22;45234;-71
2023/09/16 09:01:10;;;;;;;;;13.75;11.50;;;;;;;;6306643;22;45664;-72
2023/09/16 09:03:35;;;;;;;;;15.75;15.25;;;;;;;;6306458;22;45460;-71
2023/09/16 09:06:00;;;;;;;;;15.50;13.25;;;;;;;;6304648;22;45239;-72
2023/09/16 09:08:25;;;;;;;;;13.00;11.75;;;;;;;;6307294;22;45272;-72
2023/09/16 09:10:51;;;;;;;;;17.00;13.00;;;;;;;;6305511;22;45454;-72
2023/09/16 09:13:16;;;;;;;;;15.00;14.00;;;;;;;;6306707;22;46201;-71
2023/09/16 09:15:43;;;;;;;;;15.00;14.50;;;;;;;;6277768;22;45360;-71
2023/09/16 09:18:10;;;;;;;;;13.25;12.50;;;;;;;;6306272;22;45432;-72
2023/09/16 09:20:36;;;;;;;;;17.50;16.25;;;;;;;;6306052;22;45382;-72
2023/09/16 09:23:02;;;;;;;;;12.75;11.50;;;;;;;;6305741;22;46506;-73
2023/09/16 09:25:28;;;;;;;;;17.75;16.25;;;;;;;;6306504;22;45291;-72
2023/09/16 09:27:54;;;;;;;;;15.00;14.75;;;;;;;;6306676;22;45339;-72
2023/09/16 09:30:24;;;;;;;;;14.50;13.25;;;;;;;;6278639;22;45276;-72
2023/09/16 09:32:49;;;;;;;;;17.25;15.00;;;;;;;;6305494;22;45567;-72
2023/09/16 09:35:14;;;;;;;;;14.50;12.75;;;;;;;;6306339;22;45481;-72
2023/09/16 09:37:40;;;;;;;;;15.00;14.25;;;;;;;;6305725;22;45317;-72
2023/09/16 09:40:05;;;;;;;;;21.50;16.75;;;;;;;;6278070;22;46258;-73
2023/09/16 09:42:30;;;;;;;;;14.75;13.75;;;;;;;;6306735;22;45250;-74
2023/09/16 09:45:04;;;;;;;;;13.25;12.75;;;;;;;;6306121;22;45240;-73
2023/09/16 09:47:30;;;;;;;;;13.75;13.75;;;;;;;;6275631;22;45606;-74
2023/09/16 09:49:55;;;;;;;;;19.00;18.25;;;;;;;;6305739;22;45364;-73
2023/09/16 09:52:21;;;;;;;;;16.00;13.75;;;;;;;;6306161;22;45345;-72
2023/09/16 09:54:47;;;;;;;;;13.50;13.50;;;;;;;;6306013;22;45295;-73
2023/09/16 09:57:13;;;;;;;;;15.00;14.00;;;;;;;;6306672;22;45291;-72
2023/09/16 09:59:40;;;;;;;;;11.75;11.75;;;;;;;;6306321;22;45260;-72
2023/09/16 10:02:06;;;;;;;;;10.50;10.50;;;;;;;;6306207;22;46522;-72
2023/09/16 10:04:31;;;;;;;;;16.75;13.75;;;;;;;;6305420;22;45352;-73
2023/09/16 10:06:59;;;;;;;;;11.75;10.75;;;;;;;;6305094;22;45387;-73
2023/09/16 10:09:24;;;;;;;;;13.00;12.00;;;;;;;;6305865;22;45342;-72
2023/09/16 10:11:50;;;;;;;;;14.25;12.00;;;;;;;;6306498;22;45596;-73
2023/09/16 10:14:16;;;;;;;;;15.25;13.50;;;;;;;;6305129;22;45398;-72
2023/09/16 10:16:41;;;;;;;;;13.50;11.00;;;;;;;;6308867;22;45262;-73
2023/09/16 10:19:06;;;;;;;;;14.25;12.00;;;;;;;;6308522;22;45407;-72
2023/09/16 10:21:31;;;;;;;;;12.00;10.25;;;;;;;;6306369;22;45262;-72
2023/09/16 10:23:57;;;;;;;;;11.25;9.00;;;;;;;;6308880;22;45135;-72
2023/09/16 10:26:22;;;;;;;;;15.50;13.75;;;;;;;;6280542;22;45251;-72
2023/09/16 10:28:49;;;;;;;;;11.25;10.50;;;;;;;;6309495;22;45422;-71
2023/09/16 10:31:16;;;;;;;;;15.25;12.50;;;;;;;;6308637;22;46560;-72
2023/09/16 10:33:41;;;;;;;;;14.00;13.00;;;;;;;;6281039;22;45279;-71
2023/09/16 10:36:07;;;;;;;;;13.00;12.00;;;;;;;;6308313;22;45366;-71
2023/09/16 10:38:34;;;;;;;;;13.75;13.00;;;;;;;;6280471;22;45744;-70
2023/09/16 10:40:59;;;;;;;;;34.67;31.33;;;;;;;;6280179;22;47290;-71
2023/09/16 10:43:25;;;;;;;;;14.00;14.00;;;;;;;;6308994;22;45279;-71
2023/09/16 10:45:51;;;;;;;;;13.50;13.25;;;;;;;;6308429;22;45278;-71
2023/09/16 10:48:16;;;;;;;;;26.75;25.00;;;;;;;;6308782;22;45293;-71
2023/09/16 10:50:43;;;;;;;;;17.75;16.25;;;;;;;;6308088;22;45255;-72
2023/09/16 10:53:11;;;;;;;;;15.00;13.40;;;;;;;;6308476;22;45274;-72
2023/09/16 10:55:49;;;;;;;;;17.00;16.75;;;;;;;;6308711;22;45167;-71
2023/09/16 10:58:30;;;;;;;;;18.25;14.75;;;;;;;;6309821;22;45241;-72
2023/09/16 11:00:57;;;;;;;;;41.33;35.67;;;;;;;;6309134;22;45313;-71
2023/09/16 11:03:28;;;;;;;;;22.50;18.00;;;;;;;;6281846;22;45336;-71
2023/09/16 11:05:53;;;;;;;;;40.67;35.00;;;;;;;;6308320;22;45219;-70
2023/09/16 11:08:18;;;;;;;;;17.75;16.00;;;;;;;;6309829;22;45169;-70
2023/09/16 11:10:44;;;;;;;;;13.50;12.50;;;;;;;;6304906;22;45526;-72
2023/09/16 11:13:09;;;;;;;;;15.00;13.50;;;;;;;;6277434;22;45388;-72
2023/09/16 11:15:35;;;;;;;;;12.00;12.00;;;;;;;;6307301;22;45636;-72
2023/09/16 11:18:04;;;;;;;;;15.75;13.75;;;;;;;;6278394;22;45562;-72
2023/09/16 11:20:33;;;;;;;;;11.25;11.25;;;;;;;;6278356;22;46236;-73
2023/09/16 11:23:02;;;;;;;;;12.00;12.00;;;;;;;;6307160;22;45539;-72
2023/09/16 11:25:34;;;;;;;;;13.25;12.00;;;;;;;;6278880;22;45605;-72
2023/09/16 11:28:03;;;;;;;;;14.75;13.75;;;;;;;;6307017;22;45396;-72
2023/09/16 11:30:30;;;;;;;;;54.00;44.67;;;;;;;;6277933;22;46702;-72
2023/09/16 11:32:55;;;;;;;;;15.40;15.40;;;;;;;;6307049;22;45669;-72
2023/09/16 11:35:21;;;;;;;;;57.75;46.75;;;;;;;;6307380;22;45334;-72
2023/09/16 11:37:46;;;;;;;;;57.67;45.33;;;;;;;;6278810;22;46307;-72
2023/09/16 11:40:13;;;;;;;;;31.75;30.00;;;;;;;;6305624;22;46162;-72
2023/09/16 11:42:38;;;;;;;;;18.00;18.00;;;;;;;;6278819;22;45220;-72
2023/09/16 11:45:03;;;;;;;;;17.75;16.00;;;;;;;;6307035;22;45537;-71
2023/09/16 11:47:30;;;;;;;;;42.67;37.33;;;;;;;;6306318;22;45632;-72
2023/09/16 11:49:55;;;;;;;;;17.00;15.75;;;;;;;;6307407;22;45458;-72
2023/09/16 11:52:20;;;;;;;;;20.00;19.00;;;;;;;;6309623;22;45270;-72
2023/09/16 11:54:47;;;;;;;;;11.25;10.25;;;;;;;;6309528;22;45465;-72
2023/09/16 11:57:12;;;;;;;;;15.25;12.75;;;;;;;;6309631;22;45335;-72
2023/09/16 11:59:37;;;;;;;;;20.75;19.50;;;;;;;;6280750;22;46698;-72
2023/09/16 12:02:03;;;;;;;;;9.00;9.00;;;;;;;;6309906;22;45263;-72
2023/09/16 12:04:30;;;;;;;;;8.50;8.50;;;;;;;;6281418;22;45240;-72
2023/09/16 12:06:55;;;;;;;;;12.00;9.00;;;;;;;;6309324;22;45371;-72
2023/09/16 12:09:22;;;;;;;;;5.75;5.25;;;;;;;;6308997;22;46207;-72
2023/09/16 12:11:50;;;;;;;;;10.40;10.00;;;;;;;;6309605;22;45109;-73
2023/09/16 12:14:15;;;;;;;;;8.60;8.60;;;;;;;;6309486;22;45313;-72
2023/09/16 12:16:40;;;;;;;;;11.50;9.50;;;;;;;;6280996;22;45604;-72
2023/09/16 12:19:05;;;;;;;;;10.75;9.75;;;;;;;;6308866;22;45176;-72
2023/09/16 12:21:31;;;;;;;;;10.25;10.00;;;;;;;;6309477;22;45163;-71
2023/09/16 12:23:56;;;;;;;;;11.50;11.25;;;;;;;;6281115;22;45221;-71
2023/09/16 12:26:22;;;;;;;;;10.25;10.25;;;;;;;;6309362;22;45536;-71
2023/09/16 12:28:47;;;;;;;;;11.25;11.00;;;;;;;;6309772;22;46170;-71
2023/09/16 12:31:12;;;;;;;;;15.75;13.00;;;;;;;;6309374;22;45190;-72
2023/09/16 12:33:47;;;;;;;;;7.75;7.25;;;;;;;;6280271;22;45487;-71
2023/09/16 12:36:15;;;;;;;;;6.80;6.80;;;;;;;;6308411;22;45468;-71
2023/09/16 12:38:41;;;;;;;;;16.60;14.00;;;;;;;;6309672;22;45281;-72
2023/09/16 12:41:07;;;;;;;;;9.25;9.25;;;;;;;;6281281;22;45259;-71
2023/09/16 12:43:33;;;;;;;;;6.80;6.20;;;;;;;;6281839;22;45200;-71
2023/09/16 12:45:59;;;;;;;;;9.50;8.25;;;;;;;;6309373;22;45256;-72
2023/09/16 12:48:26;;;;;;;;;8.60;8.40;;;;;;;;6309632;22;46389;-71
2023/09/16 12:50:51;;;;;;;;;9.20;8.00;;;;;;;;6309071;22;45191;-72
2023/09/16 12:53:17;;;;;;;;;8.25;8.25;;;;;;;;6310097;22;45298;-71
2023/09/16 12:55:42;;;;;;;;;9.50;7.75;;;;;;;;6309183;22;45555;-72
2023/09/16 12:58:09;;;;;;;;;6.00;6.00;;;;;;;;6309496;22;46249;-72
2023/09/16 13:00:34;;;;;;;;;7.00;7.00;;;;;;;;6309481;22;45234;-72
2023/09/16 13:03:02;;;;;;;;;7.25;7.25;;;;;;;;6309901;22;45153;-71
2023/09/16 13:05:28;;;;;;;;;6.40;6.40;;;;;;;;6308416;22;45432;-71
2023/09/16 13:07:57;;;;;;;;;8.00;7.25;;;;;;;;6309415;22;45232;-71
2023/09/16 13:10:22;;;;;;;;;7.40;6.80;;;;;;;;6309139;22;45290;-71
2023/09/16 13:12:48;;;;;;;;;9.50;8.50;;;;;;;;6281482;22;45346;-72
2023/09/16 13:15:14;;;;;;;;;6.50;6.25;;;;;;;;6309025;22;45257;-72
2023/09/16 13:17:41;;;;;;;;;8.40;7.80;;;;;;;;6309594;22;46208;-72
2023/09/16 13:20:11;;;;;;;;;7.60;7.60;;;;;;;;6308178;22;45264;-72
2023/09/16 13:22:36;;;;;;;;;9.40;8.00;;;;;;;;6309350;22;45166;-72
2023/09/16 13:25:01;;;;;;;;;10.00;10.00;;;;;;;;6308971;22;45570;-71
2023/09/16 13:27:27;;;;;;;;;7.50;7.50;;;;;;;;6309431;22;45431;-72
2023/09/16 13:29:59;;;;;;;;;7.25;7.00;;;;;;;;6280677;22;45363;-72
2023/09/16 13:32:25;;;;;;;;;10.20;8.80;;;;;;;;6309584;22;45247;-71
2023/09/16 13:34:51;;;;;;;;;9.75;8.75;;;;;;;;6308804;22;45153;-72
2023/09/16 13:37:16;;;;;;;;;7.75;7.75;;;;;;;;6309215;22;45199;-72
2023/09/16 13:39:45;;;;;;;;;8.00;8.00;;;;;;;;6309092;22;45212;-71
2023/09/16 13:42:10;;;;;;;;;8.00;7.80;;;;;;;;6309547;22;45220;-72
2023/09/16 13:44:36;;;;;;;;;8.75;8.75;;;;;;;;6309066;22;45196;-72
2023/09/16 13:47:01;;;;;;;;;10.00;9.50;;;;;;;;6309005;22;46382;-72
2023/09/16 13:49:26;;;;;;;;;8.50;8.25;;;;;;;;6308690;22;45244;-72
2023/09/16 13:51:51;;;;;;;;;9.00;9.00;;;;;;;;6309666;22;45290;-72
2023/09/16 13:54:16;;;;;;;;;11.00;9.75;;;;;;;;6309034;22;45234;-72
2023/09/16 13:56:42;;;;;;;;;10.50;7.50;;;;;;;;6281302;22;47580;-72
2023/09/16 13:59:08;;;;;;;;;9.00;9.00;;;;;;;;6309116;22;45152;-72
2023/09/16 14:01:33;;;;;;;;;9.00;8.25;;;;;;;;6281579;22;45212;-72
2023/09/16 14:04:01;;;;;;;;;7.50;7.50;;;;;;;;6309097;22;45413;-72
2023/09/16 14:06:26;;;;;;;;;7.80;6.80;;;;;;;;6309022;22;45676;-72
2023/09/16 14:08:51;;;;;;;;;11.00;10.25;;;;;;;;6309284;22;45153;-72
2023/09/16 14:11:19;;;;;;;;;7.50;6.50;;;;;;;;6280635;22;45141;-71
2023/09/16 14:13:44;;;;;;;;;8.40;8.40;;;;;;;;6308699;22;45360;-72
2023/09/16 14:16:09;;;;;;;;;8.00;8.00;;;;;;;;6308843;22;45492;-72
2023/09/16 14:18:35;;;;;;;;;9.75;9.75;;;;;;;;6309353;22;45194;-72
2023/09/16 14:21:00;;;;;;;;;8.25;8.25;;;;;;;;6280192;22;45292;-72
2023/09/16 14:23:25;;;;;;;;;9.00;9.00;;;;;;;;6309263;22;45446;-72
2023/09/16 14:25:51;;;;;;;;;10.75;9.75;;;;;;;;6280916;22;47423;-71
2023/09/16 14:28:16;;;;;;;;;8.25;7.00;;;;;;;;6280773;22;45264;-71
2023/09/16 14:30:41;;;;;;;;;9.50;9.25;;;;;;;;6309300;22;45234;-71
2023/09/16 14:33:06;;;;;;;;;10.00;9.00;;;;;;;;6280965;22;46339;-72
2023/09/16 14:35:32;;;;;;;;;10.00;9.50;;;;;;;;6307967;22;45417;-72
2023/09/16 14:37:57;;;;;;;;;7.00;7.00;;;;;;;;6308712;22;45239;-71
2023/09/16 14:40:23;;;;;;;;;8.00;8.00;;;;;;;;6308049;22;45263;-74
2023/09/16 14:42:48;;;;;;;;;9.25;7.75;;;;;;;;6277318;22;45885;-72
2023/09/16 14:45:13;;;;;;;;;7.75;7.75;;;;;;;;6303851;22;45330;-76
2023/09/16 14:47:38;;;;;;;;;13.00;9.00;;;;;;;;6305487;22;45388;-75
2023/09/16 14:50:04;;;;;;;;;10.00;10.00;;;;;;;;6305245;22;45346;-75
2023/09/16 14:52:30;;;;;;;;;11.25;10.00;;;;;;;;6277909;22;46758;-74
2023/09/16 14:54:55;;;;;;;;;10.60;10.60;;;;;;;;6306855;22;46804;-74
2023/09/16 14:57:23;;;;;;;;;11.00;9.00;;;;;;;;6308345;22;45224;-74
2023/09/16 14:59:48;;;;;;;;;8.60;8.60;;;;;;;;6307474;22;45225;-74
2023/09/16 15:02:14;;;;;;;;;9.00;8.25;;;;;;;;6305184;22;45614;-74
2023/09/16 15:04:39;;;;;;;;;11.25;11.00;;;;;;;;6302645;22;45522;-74
2023/09/16 15:07:04;;;;;;;;;8.25;8.25;;;;;;;;6276276;22;45361;-74
2023/09/16 15:09:30;;;;;;;;;8.00;8.00;;;;;;;;6301072;22;45431;-75
2023/09/16 15:11:55;;;;;;;;;9.00;9.00;;;;;;;;6277020;22;46869;-75
2023/09/16 15:14:20;;;;;;;;;8.50;7.75;;;;;;;;6304443;22;46033;-75
2023/09/16 15:16:46;;;;;;;;;8.50;7.50;;;;;;;;6305315;22;45334;-75
2023/09/16 15:19:11;;;;;;;;;10.25;8.75;;;;;;;;6276824;22;45548;-74
2023/09/16 15:21:36;;;;;;;;;10.00;8.50;;;;;;;;6304922;22;45566;-75
2023/09/16 15:24:03;;;;;;;;;14.60;11.80;;;;;;;;6276413;22;46474;-74
2023/09/16 15:26:30;;;;;;;;;8.75;8.75;;;;;;;;6306739;22;45225;-74
2023/09/16 15:28:55;;;;;;;;;11.40;11.20;;;;;;;;6307782;22;45201;-75
2023/09/16 15:31:20;;;;;;;;;13.00;11.25;;;;;;;;6307631;22;45825;-74
2023/09/16 15:33:46;;;;;;;;;8.00;8.00;;;;;;;;6307573;22;45287;-74
2023/09/16 15:36:11;;;;;;;;;10.50;8.75;;;;;;;;6307311;22;45248;-74
2023/09/16 15:38:36;;;;;;;;;11.00;7.75;;;;;;;;6308452;22;45193;-73
2023/09/16 15:41:03;;;;;;;;;15.00;13.25;;;;;;;;6307401;22;45513;-73
2023/09/16 15:43:30;;;;;;;;;12.20;12.00;;;;;;;;6307412;22;45276;-73
2023/09/16 15:46:03;;;;;;;;;14.60;13.60;;;;;;;;6279804;22;45260;-73
2023/09/16 15:48:28;;;;;;;;;13.20;12.20;;;;;;;;6309210;22;45375;-73
2023/09/16 15:50:54;;;;;;;;;9.25;9.00;;;;;;;;6308496;22;45521;-73
2023/09/16 15:53:19;;;;;;;;;11.25;11.25;;;;;;;;6309002;22;46147;-73
2023/09/16 15:55:45;;;;;;;;;13.00;11.25;;;;;;;;6280533;22;45674;-74
2023/09/16 15:58:18;;;;;;;;;9.60;9.60;;;;;;;;6281262;22;45393;-73
2023/09/16 16:00:51;;;;;;;;;9.80;8.80;;;;;;;;6308078;22;45308;-73
2023/09/16 16:03:18;;;;;;;;;10.20;10.20;;;;;;;;6308825;22;46002;-72
2023/09/16 16:05:43;;;;;;;;;12.40;11.20;;;;;;;;6279725;22;45255;-72
2023/09/16 16:08:09;;;;;;;;;10.00;8.75;;;;;;;;6309186;22;45216;-73
2023/09/16 16:10:35;;;;;;;;;9.00;7.60;;;;;;;;6308764;22;45396;-73
2023/09/16 16:13:00;;;;;;;;;9.25;9.25;;;;;;;;6308719;22;46515;-73
2023/09/16 16:15:26;;;;;;;;;10.25;10.25;;;;;;;;6308610;22;45258;-72
2023/09/16 16:17:53;;;;;;;;;12.60;10.80;;;;;;;;6309441;22;45244;-73
2023/09/16 16:20:19;;;;;;;;;10.80;8.80;;;;;;;;6308487;22;45283;-72
2023/09/16 16:22:44;;;;;;;;;11.50;11.50;;;;;;;;6309600;22;45226;-72
2023/09/16 16:25:09;;;;;;;;;11.75;11.50;;;;;;;;6280859;22;45213;-72
2023/09/16 16:27:35;;;;;;;;;15.25;14.00;;;;;;;;6309440;22;45219;-72
2023/09/16 16:30:04;;;;;;;;;10.75;9.50;;;;;;;;6280244;22;45929;-72
2023/09/16 16:32:29;;;;;;;;;9.80;9.80;;;;;;;;6308984;22;46406;-72
2023/09/16 16:34:54;;;;;;;;;9.75;9.75;;;;;;;;6308357;22;45366;-73
2023/09/16 16:37:20;;;;;;;;;10.50;9.00;;;;;;;;6309395;22;45243;-73
2023/09/16 16:39:45;;;;;;;;;7.00;6.50;;;;;;;;6308817;22;45550;-72
2023/09/16 16:42:10;;;;;;;;;12.25;10.00;;;;;;;;6309242;22;46643;-72
2023/09/16 16:44:35;;;;;;;;;8.25;7.25;;;;;;;;6308626;22;45295;-73
2023/09/16 16:47:02;;;;;;;;;18.50;11.00;;;;;;;;6309047;22;45216;-73
2023/09/16 16:49:28;;;;;;;;;31.50;20.75;;;;;;;;6307825;22;46552;-73
2023/09/16 16:51:54;;;;;;;;;9.50;9.50;;;;;;;;6308831;22;45300;-74
2023/09/16 16:54:19;;;;;;;;;15.75;14.25;;;;;;;;6308846;22;45220;-73
2023/09/16 16:56:44;;;;;;;;;26.50;13.00;;;;;;;;6308908;22;45145;-74
2023/09/16 16:59:09;;;;;;;;;12.75;11.00;;;;;;;;6308657;22;45502;-74
2023/09/16 17:01:34;;;;;;;;;52.50;30.00;;;;;;;;6308538;22;45299;-74
2023/09/16 17:04:02;;;;;;;;;11.00;10.50;;;;;;;;6308657;22;45152;-74
2023/09/16 17:06:27;;;;;;;;;9.25;9.25;;;;;;;;6280741;22;45290;-74
2023/09/16 17:08:52;;;;;;;;;9.25;8.50;;;;;;;;6309018;22;45350;-77
2023/09/16 17:11:17;;;;;;;;;9.75;9.75;;;;;;;;6308167;22;46410;-73
2023/09/16 17:13:42;;;;;;;;;13.75;11.00;;;;;;;;6308865;22;45176;-73
2023/09/16 17:16:08;;;;;;;;;10.00;8.25;;;;;;;;6307578;22;45240;-73
2023/09/16 17:18:33;;;;;;;;;10.50;9.25;;;;;;;;6308759;22;45497;-74
2023/09/16 17:20:58;;;;;;;;;10.75;10.00;;;;;;;;6308095;22;46380;-73
2023/09/16 17:23:26;;;;;;;;;20.75;13.25;;;;;;;;6309246;22;45271;-73
2023/09/16 17:25:54;;;;;;;;;11.50;11.50;;;;;;;;6308535;22;45263;-71
2023/09/16 17:28:24;;;;;;;;;16.25;13.75;;;;;;;;6280262;22;45905;-72
2023/09/16 17:30:52;;;;;;;;;22.25;14.75;;;;;;;;6280190;22;47003;-71
2023/09/16 17:33:18;;;;;;;;;15.00;11.50;;;;;;;;6308495;22;45243;-71
2023/09/16 17:35:44;;;;;;;;;16.75;14.75;;;;;;;;6280253;22;45339;-71
2023/09/16 17:38:09;;;;;;;;;12.00;10.25;;;;;;;;6308348;22;45138;-71
2023/09/16 17:40:34;;;;;;;;;14.00;11.50;;;;;;;;6279851;22;46745;-71
2023/09/16 17:42:59;;;;;;;;;10.00;8.50;;;;;;;;6309283;22;45313;-71
2023/09/16 17:45:24;;;;;;;;;13.25;12.00;;;;;;;;6309050;22;45270;-70
2023/09/16 17:47:50;;;;;;;;;12.25;12.00;;;;;;;;6309307;22;45434;-71
2023/09/16 17:50:15;;;;;;;;;13.50;12.50;;;;;;;;6308445;22;45221;-71
2023/09/16 17:52:40;;;;;;;;;13.25;11.75;;;;;;;;6309217;22;45282;-71
2023/09/16 17:55:06;;;;;;;;;15.00;10.25;;;;;;;;6309052;22;45165;-71
2023/09/16 17:57:31;;;;;;;;;16.00;15.00;;;;;;;;6309186;22;45227;-71
2023/09/16 17:59:57;;;;;;;;;14.00;12.50;;;;;;;;6308730;22;46620;-72
2023/09/16 18:02:22;;;;;;;;;14.50;14.00;;;;;;;;6309176;22;45206;-72
2023/09/16 18:04:47;;;;;;;;;14.50;11.75;;;;;;;;6308017;22;45282;-72
2023/09/16 18:07:12;;;;;;;;;14.00;14.00;;;;;;;;6308493;22;45466;-73
2023/09/16 18:09:38;;;;;;;;;11.75;10.75;;;;;;;;6309022;22;46431;-72
2023/09/16 18:12:03;;;;;;;;;13.50;13.25;;;;;;;;6308887;22;45446;-72
2023/09/16 18:14:28;;;;;;;;;14.75;13.00;;;;;;;;6308778;22;45391;-71
2023/09/16 18:16:53;;;;;;;;;13.50;13.50;;;;;;;;6309015;22;45412;-73
2023/09/16 18:19:19;;;;;;;;;19.50;14.75;;;;;;;;6308660;22;45273;-72
2023/09/16 18:21:44;;;;;;;;;14.25;13.50;;;;;;;;6308803;22;45293;-73
2023/09/16 18:24:09;;;;;;;;;14.75;13.75;;;;;;;;6308856;22;45258;-73
2023/09/16 18:26:35;;;;;;;;;16.25;15.00;;;;;;;;6308581;22;45207;-73
2023/09/16 18:29:00;;;;;;;;;16.25;14.25;;;;;;;;6308368;22;45383;-73
2023/09/16 18:31:25;;;;;;;;;16.00;16.00;;;;;;;;6279763;22;45298;-73
2023/09/16 18:33:50;;;;;;;;;20.25;17.25;;;;;;;;6279709;22;46094;-72
2023/09/16 18:36:15;;;;;;;;;17.75;15.75;;;;;;;;6308049;22;45420;-73
2023/09/16 18:38:41;;;;;;;;;14.75;14.75;;;;;;;;6308613;22;46515;-73
2023/09/16 18:41:06;;;;;;;;;15.00;15.00;;;;;;;;6308304;22;45227;-72
2023/09/16 18:43:33;;;;;;;;;15.25;14.50;;;;;;;;6281280;22;45256;-73
2023/09/16 18:45:58;;;;;;;;;20.00;16.33;;;;;;;;6308100;22;45409;-72
2023/09/16 18:48:23;;;;;;;;;17.25;15.50;;;;;;;;6308615;22;46475;-72
2023/09/16 18:50:48;;;;;;;;;16.50;16.00;;;;;;;;6308030;22;45240;-73
2023/09/16 18:53:14;;;;;;;;;22.00;19.67;;;;;;;;6280403;22;45334;-73
2023/09/16 18:55:43;;;;;;;;;23.67;22.33;;;;;;;;6308180;22;45154;-72
2023/09/16 18:58:09;;;;;;;;;30.33;27.00;;;;;;;;6308060;22;45481;-73
2023/09/16 19:00:34;;;;;;;;;55.67;43.00;;;;;;;;6308253;22;45261;-72
2023/09/16 19:02:59;;;;;;;;;59.00;47.33;;;;;;;;6308641;22;45474;-73
2023/09/16 19:05:25;;;;;;;;;51.00;43.00;;;;;;;;6307117;22;45269;-73
2023/09/16 19:07:51;;;;;;;;;45.67;38.67;;;;;;;;6306449;22;45283;-73
2023/09/16 19:10:17;;;;;;;;;40.00;33.33;;;;;;;;6308527;22;45291;-73
2023/09/16 19:12:42;;;;;;;;;30.00;28.33;;;;;;;;6309129;22;45285;-74
2023/09/16 19:15:09;;;;;;;;;36.33;31.00;;;;;;;;6308501;22;45329;-72
2023/09/16 19:17:34;;;;;;;;;37.00;32.33;;;;;;;;6308079;22;46405;-73
2023/09/16 19:20:00;;;;;;;;;32.00;30.33;;;;;;;;6280035;22;45145;-73